createdAt,value
2023-04-02T00:01:37.968Z,57.23
2023-04-02T00:04:41.384Z,57.19
2023-04-02T00:07:49.034Z,57.55
2023-04-02T00:10:54.445Z,57.93
2023-04-02T00:14:02.830Z,58.04
2023-04-02T00:17:07.834Z,58.09
2023-04-02T00:20:20.177Z,58.54
2023-04-02T00:23:24.121Z,58.00
2023-04-02T00:26:33.112Z,57.31
2023-04-02T00:29:36.531Z,57.31
2023-04-02T00:32:42.232Z,58.13
2023-04-02T00:35:46.024Z,58.12
2023-04-02T00:38:50.176Z,57.30
2023-04-02T00:42:05.212Z,57.53
2023-04-02T00:45:21.807Z,57.99
2023-04-02T00:48:41.089Z,57.88
2023-04-02T00:51:51.509Z,58.16
2023-04-02T00:55:03.867Z,58.03
2023-04-02T00:58:20.315Z,58.94
2023-04-02T01:01:27.340Z,59.41
2023-04-02T01:04:35.251Z,59.17
2023-04-02T01:07:55.313Z,59.13
2023-04-02T01:11:05.700Z,58.36
2023-04-02T01:14:19.210Z,58.60
2023-04-02T01:17:42.920Z,58.36
2023-04-02T01:21:08.624Z,58.51
2023-04-02T01:24:14.366Z,59.16
2023-04-02T01:27:22.486Z,59.36
2023-04-02T01:30:28.305Z,59.07
2023-04-02T01:33:35.002Z,59.20
2023-04-02T01:36:48.885Z,58.54
2023-04-02T01:40:07.490Z,58.57
2023-04-02T01:43:20.464Z,58.85
2023-04-02T01:46:31.931Z,60.40
2023-04-02T01:49:36.240Z,60.42
2023-04-02T01:52:42.273Z,60.88
2023-04-02T01:55:52.689Z,59.98
2023-04-02T01:58:58.277Z,59.11
2023-04-02T02:02:09.205Z,59.66
2023-04-02T02:05:17.195Z,59.59
2023-04-02T02:08:38.519Z,59.64
2023-04-02T02:11:43.871Z,59.12
2023-04-02T02:14:49.853Z,59.37
2023-04-02T02:18:00.317Z,59.17
2023-04-02T02:21:08.938Z,59.79
2023-04-02T02:24:21.397Z,59.57
2023-04-02T02:27:48.233Z,58.61
2023-04-02T02:30:55.155Z,58.86
2023-04-02T02:34:04.932Z,59.09
2023-04-02T02:37:16.375Z,59.21
2023-04-02T02:40:25.448Z,60.80
2023-04-02T02:43:29.748Z,59.75
2023-04-02T02:46:35.057Z,59.14
2023-04-02T02:49:46.780Z,60.12
2023-04-02T02:52:54.858Z,59.28
2023-04-02T02:56:01.771Z,59.34
2023-04-02T02:59:16.050Z,59.75
2023-04-02T03:02:20.958Z,58.96
2023-04-02T03:05:29.351Z,59.62
2023-04-02T03:08:43.281Z,58.96
2023-04-02T03:11:55.736Z,59.76
2023-04-02T03:15:07.684Z,59.30
2023-04-02T03:18:19.287Z,58.94
2023-04-02T03:21:29.431Z,58.79
2023-04-02T03:24:39.382Z,59.11
2023-04-02T03:27:47.802Z,59.49
2023-04-02T03:30:56.535Z,59.35
2023-04-02T03:34:02.645Z,59.75
2023-04-02T03:37:16.039Z,59.12
2023-04-02T03:40:23.687Z,59.29
2023-04-02T03:43:33.522Z,59.51
2023-04-02T03:46:42.618Z,58.54
2023-04-02T03:49:50.949Z,58.71
2023-04-02T03:52:58.536Z,58.99
2023-04-02T03:56:03.991Z,58.07
2023-04-02T03:59:16.998Z,58.27
2023-04-02T04:02:36.168Z,58.03
2023-04-02T04:05:48.421Z,57.68
2023-04-02T04:08:57.847Z,58.02
2023-04-02T04:12:12.330Z,57.90
2023-04-02T04:15:22.766Z,58.06
2023-04-02T04:18:35.089Z,58.60
2023-04-02T04:21:45.049Z,59.05
2023-04-02T04:25:00.219Z,58.60
2023-04-02T04:28:16.610Z,58.32
2023-04-02T04:31:30.926Z,58.18
2023-04-02T04:34:46.746Z,57.74
2023-04-02T04:37:59.949Z,59.04
2023-04-02T04:41:14.404Z,59.10
2023-04-02T04:44:23.835Z,58.11
2023-04-02T04:47:36.746Z,57.94
2023-04-02T04:50:49.093Z,57.02
2023-04-02T04:53:56.278Z,57.44
2023-04-02T04:57:07.028Z,57.62
2023-04-02T05:00:19.002Z,57.11
2023-04-02T05:03:31.828Z,56.97
2023-04-02T05:06:41.599Z,56.09
2023-04-02T05:09:53.749Z,54.50
2023-04-02T05:13:05.729Z,54.06
2023-04-02T05:16:18.455Z,53.72
2023-04-02T05:19:29.281Z,55.02
2023-04-02T05:22:41.376Z,54.56
2023-04-02T05:25:56.349Z,53.56
2023-04-02T05:29:07.528Z,53.92
2023-04-02T05:32:19.794Z,54.47
2023-04-02T05:35:30.174Z,54.19
2023-04-02T05:38:36.863Z,53.44
2023-04-02T05:41:44.320Z,52.33
2023-04-02T05:45:02.072Z,50.50
2023-04-02T05:48:17.721Z,49.88
2023-04-02T05:51:27.327Z,50.82
2023-04-02T05:54:38.338Z,52.76
2023-04-02T05:58:01.267Z,51.95
2023-04-02T06:01:34.725Z,49.70
2023-04-02T06:04:49.721Z,50.98
2023-04-02T06:07:58.607Z,54.26
2023-04-02T06:11:09.398Z,51.88
2023-04-02T06:14:16.542Z,50.54
2023-04-02T06:17:23.009Z,49.53
2023-04-02T06:20:26.969Z,50.03
2023-04-02T06:23:38.428Z,50.34
2023-04-02T06:26:49.255Z,51.37
2023-04-02T06:29:59.690Z,51.66
2023-04-02T06:33:09.014Z,53.51
2023-04-02T06:36:14.060Z,52.10
2023-04-02T06:39:20.452Z,51.13
2023-04-02T06:42:29.572Z,51.83
2023-04-02T06:45:56.737Z,53.26
2023-04-02T06:49:23.885Z,53.24
2023-04-02T06:52:37.508Z,52.10
2023-04-02T06:55:48.940Z,49.60
2023-04-02T06:58:57.596Z,47.46
2023-04-02T07:02:06.672Z,44.32
2023-04-02T07:05:12.960Z,43.12
2023-04-02T07:08:22.438Z,43.83
2023-04-02T07:11:26.250Z,41.45
2023-04-02T07:14:32.940Z,41.13
2023-04-02T07:17:36.749Z,40.92
2023-04-02T07:20:42.929Z,39.78
2023-04-02T07:23:50.281Z,40.03
2023-04-02T07:26:54.342Z,39.59
2023-04-02T07:29:57.945Z,40.95
2023-04-02T07:33:01.885Z,41.54
2023-04-02T07:36:07.527Z,42.84
2023-04-02T07:39:12.395Z,43.06
2023-04-02T07:42:15.865Z,43.74
2023-04-02T07:45:20.128Z,44.16
2023-04-02T07:48:24.128Z,44.71
2023-04-02T07:51:29.716Z,45.11
2023-04-02T07:54:33.581Z,45.21
2023-04-02T07:57:43.105Z,44.17
2023-04-02T08:00:47.927Z,43.71
2023-04-02T08:03:54.306Z,44.29
2023-04-02T08:06:59.722Z,45.41
2023-04-02T08:10:03.835Z,45.05
2023-04-02T08:13:07.283Z,46.07
2023-04-02T08:16:11.451Z,47.06
2023-04-02T08:19:18.056Z,47.06
2023-04-02T08:22:23.393Z,47.19
2023-04-02T08:25:26.904Z,47.75
2023-04-02T08:28:48.945Z,46.40
2023-04-02T08:31:52.649Z,47.47
2023-04-02T08:34:56.424Z,47.72
2023-04-02T08:38:01.485Z,47.59
2023-04-02T08:41:06.399Z,47.95
2023-04-02T08:44:32.377Z,48.42
2023-04-02T08:47:38.176Z,48.44
2023-04-02T08:50:43.803Z,48.77
2023-04-02T08:53:49.357Z,48.11
2023-04-02T08:56:58.144Z,48.38
2023-04-02T09:00:22.054Z,48.76
2023-04-02T09:03:31.906Z,48.99
2023-04-02T09:06:37.122Z,49.68
2023-04-02T09:09:42.196Z,48.84
2023-04-02T09:12:49.405Z,49.35
2023-04-02T09:15:57.575Z,48.75
2023-04-02T09:19:23.738Z,49.25
2023-04-02T09:22:29.434Z,48.59
2023-04-02T09:25:35.160Z,48.17
2023-04-02T09:28:39.624Z,48.29
2023-04-02T09:31:47.575Z,48.50
2023-04-02T09:34:51.177Z,48.31
2023-04-02T09:38:31.587Z,48.37
2023-04-02T09:41:37.466Z,48.13
2023-04-02T09:44:41.417Z,48.41
2023-04-02T09:47:44.975Z,48.41
2023-04-02T09:50:48.742Z,47.34
2023-04-02T09:54:07.044Z,47.69
2023-04-02T09:57:23.975Z,47.82
2023-04-02T10:00:32.223Z,48.00
2023-04-02T10:03:36.894Z,47.60
2023-04-02T10:06:53.949Z,46.88
2023-04-02T10:09:59.803Z,47.10
2023-04-02T10:13:09.414Z,46.84
2023-04-02T10:16:18.556Z,47.09
2023-04-02T10:19:30.783Z,45.73
2023-04-02T10:22:34.892Z,46.11
2023-04-02T10:25:46.636Z,45.32
2023-04-02T10:29:07.044Z,45.32
2023-04-02T10:32:16.521Z,45.89
2023-04-02T10:35:31.633Z,46.44
2023-04-02T10:38:47.780Z,46.09
2023-04-02T10:41:57.484Z,44.60
2023-04-02T10:45:17.801Z,43.74
2023-04-02T10:48:28.036Z,41.55
2023-04-02T10:51:40.497Z,39.79
2023-04-02T10:54:49.858Z,40.10
2023-04-02T10:57:57.177Z,39.99
2023-04-02T11:01:09.461Z,41.69
2023-04-02T11:04:20.951Z,41.92
2023-04-02T11:07:30.198Z,39.92
2023-04-02T11:10:38.588Z,39.68
2023-04-02T11:13:51.453Z,40.19
2023-04-02T11:16:59.250Z,39.51
2023-04-02T11:20:36.381Z,39.05
2023-04-02T11:23:57.814Z,37.64
2023-04-02T11:27:25.930Z,38.71
2023-04-02T11:30:29.664Z,40.20
2023-04-02T11:33:47.307Z,39.52
2023-04-02T11:37:03.630Z,38.39
2023-04-02T11:40:45.738Z,37.50
2023-04-02T11:44:02.697Z,37.28
2023-04-02T11:47:17.461Z,39.30
2023-04-02T11:50:33.038Z,38.18
2023-04-02T11:53:37.664Z,40.09
2023-04-02T11:56:49.123Z,39.12
2023-04-02T12:00:12.178Z,38.65
2023-04-02T12:03:41.813Z,41.76
2023-04-02T12:06:59.942Z,39.12
2023-04-02T12:10:06.908Z,40.02
2023-04-02T12:13:19.663Z,39.02
2023-04-02T12:16:24.387Z,39.30
2023-04-02T12:19:31.085Z,40.25
2023-04-02T12:22:39.145Z,39.15
2023-04-02T12:25:46.505Z,38.53
2023-04-02T12:28:50.020Z,37.36
2023-04-02T12:31:55.949Z,38.00
2023-04-02T12:35:01.670Z,37.62
2023-04-02T12:38:07.488Z,39.27
2023-04-02T12:41:24.421Z,39.39
2023-04-02T12:44:30.204Z,40.52
2023-04-02T12:47:34.478Z,40.74
2023-04-02T12:50:41.950Z,39.60
2023-04-02T12:53:51.560Z,38.37
2023-04-02T12:56:56.698Z,39.92
2023-04-02T13:00:06.589Z,39.73
2023-04-02T13:03:20.045Z,40.15
2023-04-02T13:06:27.070Z,40.00
2023-04-02T13:09:37.122Z,38.67
2023-04-02T13:12:42.100Z,38.20
2023-04-02T13:15:46.286Z,37.31
2023-04-02T13:18:51.493Z,37.46
2023-04-02T13:21:57.150Z,37.93
2023-04-02T13:25:01.852Z,36.80
2023-04-02T13:28:05.804Z,36.69
2023-04-02T13:31:16.223Z,36.80
2023-04-02T13:34:20.015Z,36.63
2023-04-02T13:37:23.505Z,38.23
2023-04-02T13:40:28.820Z,37.83
2023-04-02T13:43:32.372Z,37.87
2023-04-02T13:46:38.584Z,37.34
2023-04-02T13:49:43.694Z,36.91
2023-04-02T13:52:52.284Z,37.33
2023-04-02T13:55:57.992Z,37.08
2023-04-02T13:59:01.915Z,37.17
2023-04-02T14:02:10.667Z,37.87
2023-04-02T14:05:30.255Z,37.98
2023-04-02T14:08:51.610Z,37.60
2023-04-02T14:12:07.138Z,38.72
2023-04-02T14:15:23.980Z,38.54
2023-04-02T14:18:47.349Z,38.27
2023-04-02T14:22:02.623Z,41.20
2023-04-02T14:25:17.145Z,41.66
2023-04-02T14:28:30.173Z,41.90
2023-04-02T14:31:38.051Z,41.97
2023-04-02T14:34:48.930Z,42.34
2023-04-02T14:38:05.069Z,42.44
2023-04-02T14:41:14.981Z,41.99
2023-04-02T14:44:24.190Z,42.27
2023-04-02T14:47:35.275Z,42.40
2023-04-02T14:50:41.552Z,42.69
2023-04-02T14:53:53.936Z,42.88
2023-04-02T14:57:02.959Z,43.04
2023-04-02T15:00:21.778Z,42.90
2023-04-02T15:03:30.242Z,43.18
2023-04-02T15:06:39.072Z,41.97
2023-04-02T15:09:50.626Z,42.17
2023-04-02T15:12:56.336Z,42.04
2023-04-02T15:16:11.020Z,42.25
2023-04-02T15:19:17.939Z,42.49
2023-04-02T15:22:35.872Z,42.37
2023-04-02T15:25:49.009Z,42.17
2023-04-02T15:29:02.516Z,42.32
2023-04-02T15:32:24.137Z,41.79
2023-04-02T15:35:37.964Z,41.97
2023-04-02T15:38:46.031Z,42.12
2023-04-02T15:42:01.297Z,42.03
2023-04-02T15:45:23.294Z,42.07
2023-04-02T15:48:57.343Z,41.99
2023-04-02T15:52:09.374Z,42.50
2023-04-02T15:55:23.705Z,43.50
2023-04-02T15:58:43.997Z,43.83
2023-04-02T16:01:59.438Z,44.70
2023-04-02T16:05:15.084Z,45.16
2023-04-02T16:08:36.476Z,45.13
2023-04-02T16:11:40.412Z,45.78
2023-04-02T16:14:46.124Z,46.28
2023-04-02T16:17:56.321Z,46.47
2023-04-02T16:21:04.106Z,46.32
2023-04-02T16:24:12.189Z,46.79
2023-04-02T16:27:27.330Z,47.22
2023-04-02T16:30:51.180Z,47.77
2023-04-02T16:34:06.319Z,48.33
2023-04-02T16:37:23.471Z,48.75
2023-04-02T16:40:38.083Z,48.64
2023-04-02T16:43:51.494Z,48.91
2023-04-02T16:47:04.272Z,48.70
2023-04-02T16:50:18.351Z,49.23
2023-04-02T16:53:31.806Z,49.66
2023-04-02T16:56:46.783Z,49.19
2023-04-02T17:00:02.197Z,49.10
2023-04-02T17:03:21.321Z,49.04
2023-04-02T17:06:36.963Z,49.54
2023-04-02T17:09:50.087Z,49.54
2023-04-02T17:13:03.544Z,49.88
2023-04-02T17:16:18.061Z,49.53
2023-04-02T17:19:22.840Z,50.03
2023-04-02T17:22:26.279Z,50.55
2023-04-02T17:25:36.180Z,50.61
2023-04-02T17:28:40.884Z,50.73
2023-04-02T17:31:46.842Z,51.59
2023-04-02T17:34:50.392Z,51.65
2023-04-02T17:38:01.222Z,51.38
2023-04-02T17:41:14.202Z,52.26
2023-04-02T17:44:34.121Z,53.63
2023-04-02T17:47:47.425Z,53.77
2023-04-02T17:51:10.812Z,53.31
2023-04-02T17:54:33.206Z,53.35
2023-04-02T17:57:50.094Z,53.97
2023-04-02T18:01:03.908Z,53.78
2023-04-02T18:04:31.110Z,53.65
2023-04-02T18:07:46.921Z,53.86
2023-04-02T18:11:03.765Z,53.94
2023-04-02T18:14:28.381Z,54.11
2023-04-02T18:17:43.729Z,54.23
2023-04-02T18:20:58.231Z,53.22
2023-04-02T18:24:26.106Z,53.35
2023-04-02T18:27:46.554Z,53.29
2023-04-02T18:30:59.725Z,53.89
2023-04-02T18:34:32.065Z,54.00
2023-04-02T18:37:45.083Z,54.03
2023-04-02T18:41:03.841Z,54.75
2023-04-02T18:44:21.287Z,55.22
2023-04-02T18:47:31.673Z,54.53
2023-04-02T18:50:37.804Z,54.70
2023-04-02T18:53:43.412Z,55.48
2023-04-02T18:56:47.135Z,55.34
2023-04-02T18:59:55.712Z,55.29
2023-04-02T19:03:06.347Z,54.78
2023-04-02T19:06:14.553Z,54.64
2023-04-02T19:09:23.375Z,55.14
2023-04-02T19:12:26.804Z,55.20
2023-04-02T19:15:39.756Z,54.74
2023-04-02T19:18:57.206Z,54.70
2023-04-02T19:22:13.599Z,54.83
2023-04-02T19:25:31.567Z,54.91
2023-04-02T19:28:44.547Z,55.07
2023-04-02T19:31:56.271Z,54.80
2023-04-02T19:35:08.798Z,55.55
2023-04-02T19:38:29.797Z,55.58
2023-04-02T19:41:41.412Z,55.83
2023-04-02T19:44:49.730Z,56.47
2023-04-02T19:47:54.414Z,55.90
2023-04-02T19:50:59.527Z,55.70
2023-04-02T19:54:04.890Z,56.62
2023-04-02T19:57:14.786Z,56.83
2023-04-02T20:00:20.205Z,56.56
2023-04-02T20:03:25.530Z,55.90
2023-04-02T20:06:32.905Z,55.54
2023-04-02T20:09:36.529Z,55.54
2023-04-02T20:12:41.072Z,56.32
2023-04-02T20:15:44.631Z,56.40
2023-04-02T20:18:49.333Z,56.13
2023-04-02T20:21:54.556Z,55.82
2023-04-02T20:24:58.868Z,55.29
2023-04-02T20:28:04.084Z,55.66
2023-04-02T20:31:10.172Z,55.83
2023-04-02T20:34:13.971Z,55.98
2023-04-02T20:37:19.370Z,55.93
2023-04-02T20:40:22.891Z,56.32
2023-04-02T20:43:26.920Z,55.73
2023-04-02T20:46:30.411Z,58.20
2023-04-02T20:49:34.813Z,57.27
2023-04-02T20:52:39.876Z,58.05
2023-04-02T20:55:43.887Z,59.30
2023-04-02T20:58:47.401Z,57.21
2023-04-02T21:01:51.940Z,57.20
2023-04-02T21:04:56.418Z,57.62
2023-04-02T21:08:02.455Z,57.25
2023-04-02T21:11:07.254Z,56.90
2023-04-02T21:14:11.278Z,57.24
2023-04-02T21:17:16.071Z,57.43
2023-04-02T21:20:19.904Z,57.97
2023-04-02T21:23:24.925Z,57.79
2023-04-02T21:26:31.311Z,57.03
2023-04-02T21:29:35.988Z,56.49
2023-04-02T21:32:39.826Z,56.59
2023-04-02T21:35:43.461Z,57.31
2023-04-02T21:38:50.810Z,57.59
2023-04-02T21:41:54.893Z,56.97
2023-04-02T21:44:59.230Z,57.74
2023-04-02T21:48:02.855Z,56.70
2023-04-02T21:51:11.900Z,57.41
2023-04-02T21:54:16.788Z,58.08
2023-04-02T21:57:20.644Z,57.60
2023-04-02T22:00:24.149Z,57.40
2023-04-02T22:03:31.741Z,57.88
2023-04-02T22:06:38.934Z,57.85
2023-04-02T22:09:44.551Z,57.56
2023-04-02T22:12:48.411Z,58.02
2023-04-02T22:15:52.250Z,57.71
2023-04-02T22:18:57.157Z,58.61
2023-04-02T22:22:01.309Z,58.27
2023-04-02T22:25:07.400Z,58.02
2023-04-02T22:28:11.308Z,57.67
2023-04-02T22:31:16.716Z,58.26
2023-04-02T22:34:21.071Z,58.17
2023-04-02T22:37:43.493Z,58.32
2023-04-02T22:40:48.355Z,58.08
2023-04-02T22:43:52.846Z,58.14
2023-04-02T22:46:56.751Z,57.73
2023-04-02T22:50:00.699Z,58.11
2023-04-02T22:53:04.575Z,57.94
2023-04-02T22:56:12.455Z,58.00
2023-04-02T22:59:16.263Z,58.10
2023-04-02T23:02:20.828Z,58.63
2023-04-02T23:05:24.444Z,58.36
2023-04-02T23:08:28.704Z,58.01
2023-04-02T23:11:33.820Z,58.41
2023-04-02T23:14:37.661Z,58.38
2023-04-02T23:17:41.173Z,58.33
2023-04-02T23:20:45.050Z,58.69
2023-04-02T23:23:49.299Z,59.01
2023-04-02T23:26:54.385Z,59.42
2023-04-02T23:29:57.852Z,59.74
2023-04-02T23:33:03.483Z,60.10
2023-04-02T23:36:09.668Z,60.68
2023-04-02T23:39:15.158Z,59.65
2023-04-02T23:42:20.228Z,59.85
2023-04-02T23:45:24.344Z,60.06
2023-04-02T23:48:27.877Z,59.75
2023-04-02T23:51:32.525Z,60.12
2023-04-02T23:54:36.163Z,59.63
2023-04-02T23:57:41.647Z,58.81
